Primrose, Nebraska
Current Conditions -  °F | °C
As of 3:15 AM on Wednesday 22 Oct 2014 (Local Time) from KBVN Reporting Station
Clear Clear  
Wind Chill: 55°   Ceiling: Unl
Heat Index: 55°   Visibility: 10mi
Dew Point: 43°   Wind: 9mph
Humidity: 65%   Direction: 130°SE
Pressure: 29.99"   Gusts: NA
Location:  41.62°N, 98.24°W
Report Text: KBVN 220815Z AUTO 13008KT 10SM CLR 13/06 A2999 RMK AO2 T01250060
Loading
Personal Weather Stations






























Interactive Weather Map
Tropical Storm Tracking
New forecast layout! Learn more

10-Day Weather Forecast

Advertisements
Track Severe Weather on mobile